LXGB

Gibraltar Airport

Gibraltar, Gibraltar
TAF LXGB 151028Z 1512/1521 05005KT 9999 FEW018 TEMPO 1512/1521 FEW010 SCT018 PROB30 TEMPO 1512/1518 18012KT 520001
Issued Valid From Valid To
Aug-15 @ 10:28 UTC
(2 hours ago)
Aug-15 @ 12:00 UTC
(41 minutes ago)
Aug-15 @ 21:00 UTC
(in 8 hours)
Aug-15 @ 12:00 to Aug-15 @ 21:00
TAF LXGB 151028Z 1512/1521 05005KT 9999 FEW018
Wind Visibility Clouds
50° at 5 knots 10,000+ meters
  • Few at 1,800' AGL
Temporary  (Probability 30%) Aug-15 @ 12:00 to Aug-15 @ 18:00
PROB30 TEMPO 1512/1518 18012KT 520001
Wind Turbulence
180° at 12 knots Occasional moderate clear air turbulence expected at the surface extending to 1,000' AGL
Temporary Aug-15 @ 12:00 to Aug-15 @ 21:00
TEMPO 1512/1521 FEW010 SCT018
Clouds
  • Few at 1,000' AGL
  • Scattered at 1,800' AGL
TAF LXGB 151028Z 1512/1521 05005KT 9999 FEW018 TEMPO 1512/1521 FEW010 SCT018 PROB30 TEMPO 1512/1518 18012KT 520001
Issued Aug-15 @ 10:28 UTC
(2 hours ago)
Valid From Aug-15 @ 12:00 UTC
(41 minutes ago)
Valid To Aug-15 @ 21:00 UTC
(in 8 hours)
Aug-15 @ 12:00 - Aug-15 @ 21:00
Wind Visibility
50° at 5 knots 10,000+ meters
Clouds
  • Few at 1,800' AGL
Probability 30% Temporary Aug-15 @ 12:00 - Aug-15 @ 18:00
Wind
180° at 12 knots
Temporary Aug-15 @ 12:00 - Aug-15 @ 21:00
Clouds
  • Few at 1,000' AGL
  • Scattered at 1,800' AGL